Terminal Aerodrome Forecast
Issued by NWS Dodge City, KS

Home | Current Version | Previous Version | Graphics & Text | Print | Product List | Glossary Off
Versions: 1 2 3 4 5 6 7 8 9 10 11 12 13 14 15 16

000
FTUS43 KDDC 170500
TAFDDC
TAF
KDDC 170520Z 1706/1806 03015KT P6SM OVC120
     FM170900 03010KT P6SM OVC080
     FM171100 02012KT 6SM -SHRA SCT015 BKN050
     FM171700 09009KT P6SM BKN100=

USA.gov is the U.S. government's official web portal to all federal, state and local government web resources and services.